Anajas, Brazil
Current Conditions -  °F | °C
As of 10:00 AM on Thursday 18 Dec 2014 (Local Time) from SBMQ Reporting Station
Broken Clouds Broken Clouds  
Wind Chill: 90°   Ceiling: 1700
Heat Index: 100°   Visibility: 6mi
Dew Point: 75°   Wind: 12mph
Humidity: 62%   Direction: 50°NE
Pressure: 29.91"   Gusts: NA
Location:  0.98°S, 49.95°W
Report Text: SBMQ 181300Z 05010KT 9999 BKN017 BKN080 32/24 Q1013
Loading
Personal Weather Stations






























Interactive Weather Map New forecast layout! Learn more

10-Day Weather Forecast

Advertisements
Track Severe Weather on mobile